sensor_id;sensor_type;location;lat;lon;timestamp;pressure;altitude;pressure_sealevel;temperature;humidity
64095;BME280;50353;51.420;5.682;2023-01-31T00:00:51;102237.53;;;4.59;82.10
64095;BME280;50353;51.420;5.682;2023-01-31T00:03:16;102232.50;;;4.44;82.54
64095;BME280;50353;51.420;5.682;2023-01-31T00:05:42;102239.59;;;4.34;83.67
64095;BME280;50353;51.420;5.682;2023-01-31T00:08:07;102233.59;;;4.26;83.49
64095;BME280;50353;51.420;5.682;2023-01-31T00:10:33;102241.56;;;4.12;84.00
64095;BME280;50353;51.420;5.682;2023-01-31T00:12:58;102238.94;;;4.12;84.53
64095;BME280;50353;51.420;5.682;2023-01-31T00:15:23;102237.94;;;4.25;84.31
64095;BME280;50353;51.420;5.682;2023-01-31T00:17:49;102236.16;;;4.29;83.97
64095;BME280;50353;51.420;5.682;2023-01-31T00:20:14;102237.78;;;4.39;83.68
64095;BME280;50353;51.420;5.682;2023-01-31T00:22:39;102232.84;;;4.13;84.63
64095;BME280;50353;51.420;5.682;2023-01-31T00:25:05;102229.31;;;4.17;84.08
64095;BME280;50353;51.420;5.682;2023-01-31T00:27:30;102232.09;;;4.03;84.46
64095;BME280;50353;51.420;5.682;2023-01-31T00:29:56;102238.94;;;4.16;84.18
64095;BME280;50353;51.420;5.682;2023-01-31T00:32:21;102238.06;;;4.14;84.92
64095;BME280;50353;51.420;5.682;2023-01-31T00:34:46;102240.72;;;4.11;84.33
64095;BME280;50353;51.420;5.682;2023-01-31T00:37:12;102244.09;;;4.21;83.98
64095;BME280;50353;51.420;5.682;2023-01-31T00:39:37;102244.88;;;4.29;83.77
64095;BME280;50353;51.420;5.682;2023-01-31T00:42:02;102244.56;;;3.78;86.07
64095;BME280;50353;51.420;5.682;2023-01-31T00:44:28;102240.88;;;3.97;84.79
64095;BME280;50353;51.420;5.682;2023-01-31T00:46:53;102248.38;;;4.30;84.34
64095;BME280;50353;51.420;5.682;2023-01-31T00:49:18;102246.81;;;4.13;83.99
64095;BME280;50353;51.420;5.682;2023-01-31T00:51:44;102243.06;;;4.36;83.79
64095;BME280;50353;51.420;5.682;2023-01-31T00:54:09;102246.03;;;4.05;85.05
64095;BME280;50353;51.420;5.682;2023-01-31T00:56:35;102233.00;;;3.99;85.08
64095;BME280;50353;51.420;5.682;2023-01-31T00:59:02;102232.19;;;3.92;85.29
64095;BME280;50353;51.420;5.682;2023-01-31T01:01:34;102240.78;;;4.05;85.01
64095;BME280;50353;51.420;5.682;2023-01-31T01:03:59;102238.38;;;3.85;86.24
64095;BME280;50353;51.420;5.682;2023-01-31T01:06:26;102235.03;;;3.67;86.82
64095;BME280;50353;51.420;5.682;2023-01-31T01:08:52;102235.88;;;3.69;87.12
64095;BME280;50353;51.420;5.682;2023-01-31T01:11:24;102224.31;;;3.95;85.80
64095;BME280;50353;51.420;5.682;2023-01-31T01:13:50;102228.41;;;4.19;85.44
64095;BME280;50353;51.420;5.682;2023-01-31T01:16:24;102222.47;;;4.03;85.73
64095;BME280;50353;51.420;5.682;2023-01-31T01:18:51;102224.94;;;4.16;85.40
64095;BME280;50353;51.420;5.682;2023-01-31T01:21:22;102211.06;;;4.11;85.92
64095;BME280;50353;51.420;5.682;2023-01-31T01:23:48;102228.41;;;4.19;84.91
64095;BME280;50353;51.420;5.682;2023-01-31T01:26:27;102223.19;;;4.18;85.24
64095;BME280;50353;51.420;5.682;2023-01-31T01:28:54;102214.38;;;4.28;85.59
64095;BME280;50353;51.420;5.682;2023-01-31T01:31:20;102206.53;;;4.28;85.16
64095;BME280;50353;51.420;5.682;2023-01-31T01:33:47;102202.97;;;4.34;84.93
64095;BME280;50353;51.420;5.682;2023-01-31T01:36:13;102192.47;;;4.35;84.86
64095;BME280;50353;51.420;5.682;2023-01-31T01:38:42;102190.88;;;4.22;85.11
64095;BME280;50353;51.420;5.682;2023-01-31T01:41:09;102187.97;;;4.45;84.30
64095;BME280;50353;51.420;5.682;2023-01-31T01:43:45;102174.34;;;4.17;85.33
64095;BME280;50353;51.420;5.682;2023-01-31T01:46:15;102178.97;;;4.66;83.40
64095;BME280;50353;51.420;5.682;2023-01-31T01:48:43;102157.94;;;4.71;83.34
64095;BME280;50353;51.420;5.682;2023-01-31T01:51:09;102182.72;;;4.47;83.80
64095;BME280;50353;51.420;5.682;2023-01-31T01:53:40;102188.19;;;4.27;84.79
64095;BME280;50353;51.420;5.682;2023-01-31T01:56:10;102183.53;;;4.52;83.72
64095;BME280;50353;51.420;5.682;2023-01-31T01:58:47;102176.75;;;4.35;84.41
64095;BME280;50353;51.420;5.682;2023-01-31T02:01:14;102183.97;;;4.16;85.77
64095;BME280;50353;51.420;5.682;2023-01-31T02:03:41;102190.84;;;4.25;85.67
64095;BME280;50353;51.420;5.682;2023-01-31T02:06:07;102193.50;;;4.20;85.63
64095;BME280;50353;51.420;5.682;2023-01-31T02:08:34;102190.03;;;4.20;85.50
64095;BME280;50353;51.420;5.682;2023-01-31T02:11:12;102181.38;;;4.15;85.80
64095;BME280;50353;51.420;5.682;2023-01-31T02:13:40;102184.16;;;3.98;87.42
64095;BME280;50353;51.420;5.682;2023-01-31T02:16:06;102188.72;;;3.82;87.62
64095;BME280;50353;51.420;5.682;2023-01-31T02:18:33;102199.22;;;3.76;87.67
64095;BME280;50353;51.420;5.682;2023-01-31T02:43:24;102211.31;;;3.89;88.25
64095;BME280;50353;51.420;5.682;2023-01-31T02:47:02;102214.16;;;3.61;88.48
64095;BME280;50353;51.420;5.682;2023-01-31T02:49:28;102204.59;;;3.57;89.89
64095;BME280;50353;51.420;5.682;2023-01-31T02:52:07;102213.75;;;4.04;87.17
64095;BME280;50353;51.420;5.682;2023-01-31T02:54:51;102201.75;;;3.85;88.35
64095;BME280;50353;51.420;5.682;2023-01-31T02:57:37;102205.91;;;4.04;87.83
64095;BME280;50353;51.420;5.682;2023-01-31T03:00:05;102200.75;;;3.95;88.23
64095;BME280;50353;51.420;5.682;2023-01-31T03:02:31;102191.13;;;4.00;88.74
64095;BME280;50353;51.420;5.682;2023-01-31T03:04:56;102195.78;;;3.69;89.20
64095;BME280;50353;51.420;5.682;2023-01-31T03:07:23;102191.56;;;3.59;91.82
64095;BME280;50353;51.420;5.682;2023-01-31T03:10:02;102177.28;;;3.89;89.96
64095;BME280;50353;51.420;5.682;2023-01-31T03:12:45;102185.84;;;4.03;90.04
64095;BME280;50353;51.420;5.682;2023-01-31T03:17:56;102180.50;;;4.13;88.28
64095;BME280;50353;51.420;5.682;2023-01-31T03:20:55;102173.97;;;4.49;86.83
64095;BME280;50353;51.420;5.682;2023-01-31T03:23:25;102164.38;;;4.47;86.25
64095;BME280;50353;51.420;5.682;2023-01-31T03:25:56;102158.16;;;4.57;86.55
64095;BME280;50353;51.420;5.682;2023-01-31T03:28:29;102154.88;;;4.41;87.48
64095;BME280;50353;51.420;5.682;2023-01-31T03:33:42;102150.47;;;4.42;88.23
64095;BME280;50353;51.420;5.682;2023-01-31T03:42:02;102165.41;;;4.36;87.96
64095;BME280;50353;51.420;5.682;2023-01-31T03:44:53;102161.06;;;4.35;88.12
64095;BME280;50353;51.420;5.682;2023-01-31T03:47:30;102154.97;;;4.32;89.04
64095;BME280;50353;51.420;5.682;2023-01-31T03:50:02;102150.31;;;4.55;87.93
64095;BME280;50353;51.420;5.682;2023-01-31T03:52:36;102149.69;;;4.35;88.85
64095;BME280;50353;51.420;5.682;2023-01-31T03:55:16;102141.81;;;4.38;88.61
64095;BME280;50353;51.420;5.682;2023-01-31T03:57:45;102127.81;;;4.39;87.89
64095;BME280;50353;51.420;5.682;2023-01-31T04:00:15;102130.63;;;4.25;88.42
64095;BME280;50353;51.420;5.682;2023-01-31T04:02:43;102146.31;;;4.28;88.42
64095;BME280;50353;51.420;5.682;2023-01-31T04:05:28;102135.88;;;4.25;88.25
64095;BME280;50353;51.420;5.682;2023-01-31T04:07:59;102140.97;;;4.36;88.33
64095;BME280;50353;51.420;5.682;2023-01-31T04:10:25;102137.59;;;4.28;89.49
64095;BME280;50353;51.420;5.682;2023-01-31T04:12:51;102143.06;;;4.07;90.03
64095;BME280;50353;51.420;5.682;2023-01-31T04:15:16;102133.91;;;4.41;88.46
64095;BME280;50353;51.420;5.682;2023-01-31T04:17:42;102138.38;;;4.34;89.03
64095;BME280;50353;51.420;5.682;2023-01-31T04:20:08;102131.50;;;4.27;89.84
64095;BME280;50353;51.420;5.682;2023-01-31T04:22:34;102133.22;;;4.28;89.21
64095;BME280;50353;51.420;5.682;2023-01-31T04:24:59;102128.00;;;4.27;89.67
64095;BME280;50353;51.420;5.682;2023-01-31T04:27:25;102128.00;;;4.25;89.24
64095;BME280;50353;51.420;5.682;2023-01-31T04:29:50;102132.28;;;4.31;89.46
64095;BME280;50353;51.420;5.682;2023-01-31T04:32:16;102142.94;;;4.18;90.09
64095;BME280;50353;51.420;5.682;2023-01-31T04:34:41;102139.47;;;4.16;89.65
64095;BME280;50353;51.420;5.682;2023-01-31T04:37:06;102142.72;;;4.35;89.05
64095;BME280;50353;51.420;5.682;2023-01-31T04:39:31;102141.09;;;4.25;89.83
64095;BME280;50353;51.420;5.682;2023-01-31T04:41:57;102136.69;;;4.29;89.80
64095;BME280;50353;51.420;5.682;2023-01-31T04:44:22;102129.88;;;4.17;89.67
64095;BME280;50353;51.420;5.682;2023-01-31T04:46:47;102127.50;;;3.98;90.36
64095;BME280;50353;51.420;5.682;2023-01-31T04:49:13;102119.66;;;3.95;91.29
64095;BME280;50353;51.420;5.682;2023-01-31T04:51:39;102121.13;;;4.18;90.33
64095;BME280;50353;51.420;5.682;2023-01-31T04:54:04;102126.69;;;3.93;91.19
64095;BME280;50353;51.420;5.682;2023-01-31T04:56:30;102126.34;;;4.19;90.19
64095;BME280;50353;51.420;5.682;2023-01-31T04:58:56;102131.53;;;4.26;89.71
64095;BME280;50353;51.420;5.682;2023-01-31T05:01:21;102120.31;;;4.13;89.75
64095;BME280;50353;51.420;5.682;2023-01-31T05:03:47;102128.94;;;4.21;89.53
64095;BME280;50353;51.420;5.682;2023-01-31T05:06:12;102123.16;;;3.93;90.58
64095;BME280;50353;51.420;5.682;2023-01-31T05:08:37;102117.91;;;3.97;91.13
64095;BME280;50353;51.420;5.682;2023-01-31T05:11:03;102102.09;;;4.06;90.17
64095;BME280;50353;51.420;5.682;2023-01-31T05:13:32;102097.75;;;4.05;90.38
64095;BME280;50353;51.420;5.682;2023-01-31T05:15:57;102087.22;;;4.09;89.55
64095;BME280;50353;51.420;5.682;2023-01-31T05:18:24;102086.47;;;4.00;89.40
64095;BME280;50353;51.420;5.682;2023-01-31T05:20:49;102080.41;;;3.95;90.48
64095;BME280;50353;51.420;5.682;2023-01-31T05:23:18;102087.38;;;3.98;90.04
64095;BME280;50353;51.420;5.682;2023-01-31T05:25:43;102089.97;;;3.98;89.80
64095;BME280;50353;51.420;5.682;2023-01-31T05:28:10;102077.16;;;3.79;90.80
64095;BME280;50353;51.420;5.682;2023-01-31T05:30:36;102077.91;;;3.89;90.15
64095;BME280;50353;51.420;5.682;2023-01-31T05:33:01;102066.47;;;3.95;90.43
64095;BME280;50353;51.420;5.682;2023-01-31T05:35:26;102076.81;;;4.05;90.22
64095;BME280;50353;51.420;5.682;2023-01-31T05:37:55;102076.59;;;4.21;89.22
64095;BME280;50353;51.420;5.682;2023-01-31T05:40:22;102078.25;;;4.30;88.62
64095;BME280;50353;51.420;5.682;2023-01-31T05:42:55;102074.03;;;4.18;88.24
64095;BME280;50353;51.420;5.682;2023-01-31T05:45:21;102072.28;;;4.20;89.74
64095;BME280;50353;51.420;5.682;2023-01-31T05:47:47;102072.94;;;4.33;88.27
64095;BME280;50353;51.420;5.682;2023-01-31T05:50:12;102078.13;;;4.36;88.01
64095;BME280;50353;51.420;5.682;2023-01-31T05:52:38;102076.56;;;4.22;88.45
64095;BME280;50353;51.420;5.682;2023-01-31T05:55:03;102062.97;;;3.97;89.53
64095;BME280;50353;51.420;5.682;2023-01-31T05:57:29;102061.88;;;4.14;88.63
64095;BME280;50353;51.420;5.682;2023-01-31T05:59:54;102059.34;;;4.06;88.59
64095;BME280;50353;51.420;5.682;2023-01-31T06:02:19;102059.44;;;4.01;89.19
64095;BME280;50353;51.420;5.682;2023-01-31T06:04:45;102066.28;;;4.09;88.57
64095;BME280;50353;51.420;5.682;2023-01-31T06:07:11;102054.84;;;4.19;88.09
64095;BME280;50353;51.420;5.682;2023-01-31T06:09:36;102057.53;;;4.11;88.26
64095;BME280;50353;51.420;5.682;2023-01-31T06:12:03;102048.00;;;4.07;88.07
64095;BME280;50353;51.420;5.682;2023-01-31T06:14:29;102054.25;;;3.97;89.67
64095;BME280;50353;51.420;5.682;2023-01-31T06:16:54;102048.69;;;4.21;88.02
64095;BME280;50353;51.420;5.682;2023-01-31T06:19:19;102070.81;;;3.97;89.17
64095;BME280;50353;51.420;5.682;2023-01-31T06:21:49;102064.56;;;4.09;88.86
64095;BME280;50353;51.420;5.682;2023-01-31T06:24:14;102071.50;;;4.13;87.77
64095;BME280;50353;51.420;5.682;2023-01-31T06:26:40;102074.91;;;4.17;87.65
64095;BME280;50353;51.420;5.682;2023-01-31T06:29:05;102070.84;;;3.93;88.57
64095;BME280;50353;51.420;5.682;2023-01-31T06:31:30;102080.84;;;4.30;87.73
64095;BME280;50353;51.420;5.682;2023-01-31T06:33:55;102073.97;;;4.21;87.66
64095;BME280;50353;51.420;5.682;2023-01-31T06:36:21;102061.97;;;4.06;88.90
64095;BME280;50353;51.420;5.682;2023-01-31T06:38:50;102074.88;;;4.21;88.54
64095;BME280;50353;51.420;5.682;2023-01-31T06:41:17;102081.97;;;4.13;88.00
64095;BME280;50353;51.420;5.682;2023-01-31T06:43:42;102072.06;;;4.35;87.80
64095;BME280;50353;51.420;5.682;2023-01-31T06:46:08;102070.44;;;4.25;88.00
64095;BME280;50353;51.420;5.682;2023-01-31T06:48:33;102074.94;;;4.15;89.03
64095;BME280;50353;51.420;5.682;2023-01-31T06:50:58;102062.69;;;4.19;88.70
64095;BME280;50353;51.420;5.682;2023-01-31T06:53:24;102070.66;;;4.10;89.17
64095;BME280;50353;51.420;5.682;2023-01-31T06:55:49;102068.59;;;4.32;88.66
64095;BME280;50353;51.420;5.682;2023-01-31T06:58:14;102057.91;;;3.83;90.27
64095;BME280;50353;51.420;5.682;2023-01-31T07:00:39;102054.84;;;4.19;89.71
64095;BME280;50353;51.420;5.682;2023-01-31T07:03:05;102044.03;;;4.42;88.09
64095;BME280;50353;51.420;5.682;2023-01-31T07:05:30;102039.88;;;4.27;88.28
64095;BME280;50353;51.420;5.682;2023-01-31T07:07:55;102041.63;;;4.28;89.01
64095;BME280;50353;51.420;5.682;2023-01-31T07:10:21;102050.19;;;4.38;88.74
64095;BME280;50353;51.420;5.682;2023-01-31T07:12:46;102053.09;;;4.18;89.22
64095;BME280;50353;51.420;5.682;2023-01-31T07:15:12;102048.47;;;4.37;88.59
64095;BME280;50353;51.420;5.682;2023-01-31T07:17:37;102042.41;;;4.33;89.18
64095;BME280;50353;51.420;5.682;2023-01-31T07:20:03;102038.00;;;4.37;88.68
64095;BME280;50353;51.420;5.682;2023-01-31T07:22:28;102039.03;;;4.25;89.21
64095;BME280;50353;51.420;5.682;2023-01-31T07:24:53;102046.91;;;4.23;89.96
64095;BME280;50353;51.420;5.682;2023-01-31T07:27:19;102038.16;;;4.26;90.30
64095;BME280;50353;51.420;5.682;2023-01-31T07:29:44;102037.34;;;4.21;89.92
64095;BME280;50353;51.420;5.682;2023-01-31T07:32:10;102050.81;;;4.54;88.57
64095;BME280;50353;51.420;5.682;2023-01-31T07:34:36;102049.13;;;4.50;88.41
64095;BME280;50353;51.420;5.682;2023-01-31T07:37:01;102044.66;;;4.56;88.44
64095;BME280;50353;51.420;5.682;2023-01-31T07:39:27;102030.81;;;4.48;89.09
64095;BME280;50353;51.420;5.682;2023-01-31T07:41:52;102033.38;;;4.54;88.64
64095;BME280;50353;51.420;5.682;2023-01-31T07:44:18;102030.81;;;4.51;89.68
64095;BME280;50353;51.420;5.682;2023-01-31T07:46:43;102017.72;;;4.50;88.60
64095;BME280;50353;51.420;5.682;2023-01-31T07:49:09;102027.22;;;4.57;88.84
64095;BME280;50353;51.420;5.682;2023-01-31T07:51:35;102022.13;;;4.48;90.22
64095;BME280;50353;51.420;5.682;2023-01-31T07:54:01;102023.06;;;4.44;90.50
64095;BME280;50353;51.420;5.682;2023-01-31T07:56:26;102011.38;;;4.66;88.74
64095;BME280;50353;51.420;5.682;2023-01-31T07:58:52;102015.81;;;4.61;88.04
64095;BME280;50353;51.420;5.682;2023-01-31T08:01:22;102007.88;;;4.64;87.64
64095;BME280;50353;51.420;5.682;2023-01-31T08:04:08;102014.81;;;4.68;87.81
64095;BME280;50353;51.420;5.682;2023-01-31T08:06:34;102016.56;;;4.68;88.67
64095;BME280;50353;51.420;5.682;2023-01-31T08:09:00;102015.75;;;4.64;88.77
64095;BME280;50353;51.420;5.682;2023-01-31T08:11:25;102006.06;;;4.69;88.87
64095;BME280;50353;51.420;5.682;2023-01-31T08:13:51;102005.97;;;4.74;88.99
64095;BME280;50353;51.420;5.682;2023-01-31T08:16:16;101988.69;;;4.65;89.91
64095;BME280;50353;51.420;5.682;2023-01-31T08:18:42;101985.81;;;4.79;88.80
64095;BME280;50353;51.420;5.682;2023-01-31T08:21:09;101981.63;;;4.69;89.45
64095;BME280;50353;51.420;5.682;2023-01-31T08:23:35;101979.84;;;4.71;89.15
64095;BME280;50353;51.420;5.682;2023-01-31T08:26:17;101988.34;;;4.85;88.46
64095;BME280;50353;51.420;5.682;2023-01-31T08:28:43;101978.72;;;4.86;88.28
64095;BME280;50353;51.420;5.682;2023-01-31T08:31:19;101979.47;;;4.93;88.48
64095;BME280;50353;51.420;5.682;2023-01-31T08:33:45;101976.00;;;4.90;88.67
64095;BME280;50353;51.420;5.682;2023-01-31T08:36:15;101973.28;;;4.97;88.85
64095;BME280;50353;51.420;5.682;2023-01-31T08:38:41;101976.72;;;4.99;88.34
64095;BME280;50353;51.420;5.682;2023-01-31T08:41:06;101976.53;;;5.10;87.81
64095;BME280;50353;51.420;5.682;2023-01-31T08:43:32;101965.34;;;5.00;87.97
64095;BME280;50353;51.420;5.682;2023-01-31T08:45:58;101973.41;;;4.89;89.32
64095;BME280;50353;51.420;5.682;2023-01-31T08:48:23;101968.78;;;5.03;88.63
64095;BME280;50353;51.420;5.682;2023-01-31T08:50:48;101967.69;;;5.14;88.60
64095;BME280;50353;51.420;5.682;2023-01-31T08:53:14;101958.97;;;5.15;88.02
64095;BME280;50353;51.420;5.682;2023-01-31T08:55:39;101963.25;;;5.19;88.24
64095;BME280;50353;51.420;5.682;2023-01-31T08:58:04;101950.06;;;5.22;87.47
64095;BME280;50353;51.420;5.682;2023-01-31T09:00:30;101942.00;;;5.33;88.00
64095;BME280;50353;51.420;5.682;2023-01-31T09:02:58;101953.47;;;5.27;87.75
64095;BME280;50353;51.420;5.682;2023-01-31T09:05:24;101951.47;;;5.38;87.93
64095;BME280;50353;51.420;5.682;2023-01-31T09:07:51;101940.28;;;5.32;87.79
64095;BME280;50353;51.420;5.682;2023-01-31T09:10:17;101933.13;;;5.38;88.28
64095;BME280;50353;51.420;5.682;2023-01-31T09:12:43;101943.41;;;5.49;88.16
64095;BME280;50353;51.420;5.682;2023-01-31T09:15:09;101940.00;;;5.46;88.88
64095;BME280;50353;51.420;5.682;2023-01-31T09:17:34;101926.34;;;5.70;87.16
64095;BME280;50353;51.420;5.682;2023-01-31T09:19:59;101925.50;;;5.68;86.63
64095;BME280;50353;51.420;5.682;2023-01-31T09:22:30;101920.13;;;5.74;86.54
64095;BME280;50353;51.420;5.682;2023-01-31T09:24:55;101920.28;;;5.67;87.48
64095;BME280;50353;51.420;5.682;2023-01-31T09:27:21;101928.50;;;5.92;86.72
64095;BME280;50353;51.420;5.682;2023-01-31T09:29:46;101931.41;;;5.80;86.83
64095;BME280;50353;51.420;5.682;2023-01-31T09:32:11;101921.91;;;5.72;87.01
64095;BME280;50353;51.420;5.682;2023-01-31T09:34:36;101918.19;;;5.83;86.51
64095;BME280;50353;51.420;5.682;2023-01-31T09:37:02;101921.53;;;5.89;86.79
64095;BME280;50353;51.420;5.682;2023-01-31T09:39:27;101905.72;;;5.92;87.02
64095;BME280;50353;51.420;5.682;2023-01-31T09:42:00;101907.28;;;6.03;86.74
64095;BME280;50353;51.420;5.682;2023-01-31T09:44:31;101893.09;;;6.10;86.33
64095;BME280;50353;51.420;5.682;2023-01-31T09:49:57;101901.84;;;6.09;86.52
64095;BME280;50353;51.420;5.682;2023-01-31T09:52:23;101897.63;;;6.03;87.05
64095;BME280;50353;51.420;5.682;2023-01-31T09:54:51;101907.03;;;6.12;87.54
64095;BME280;50353;51.420;5.682;2023-01-31T09:57:40;101902.88;;;6.03;86.85
64095;BME280;50353;51.420;5.682;2023-01-31T10:05:36;101884.81;;;6.25;86.94
64095;BME280;50353;51.420;5.682;2023-01-31T10:08:19;101893.72;;;6.20;87.40
64095;BME280;50353;51.420;5.682;2023-01-31T10:10:51;101889.63;;;6.44;86.99
64095;BME280;50353;51.420;5.682;2023-01-31T10:13:23;101898.13;;;6.54;86.53
64095;BME280;50353;51.420;5.682;2023-01-31T10:16:02;101879.19;;;6.41;86.13
64095;BME280;50353;51.420;5.682;2023-01-31T10:18:34;101888.81;;;6.40;86.77
64095;BME280;50353;51.420;5.682;2023-01-31T10:21:17;101873.94;;;6.41;86.52
64095;BME280;50353;51.420;5.682;2023-01-31T10:23:50;101867.38;;;6.24;87.54
64095;BME280;50353;51.420;5.682;2023-01-31T10:26:28;101876.41;;;6.47;87.21
64095;BME280;50353;51.420;5.682;2023-01-31T10:29:23;101881.59;;;6.49;86.74
64095;BME280;50353;51.420;5.682;2023-01-31T10:31:57;101885.25;;;6.43;87.43
64095;BME280;50353;51.420;5.682;2023-01-31T10:34:34;101865.13;;;6.43;87.72
64095;BME280;50353;51.420;5.682;2023-01-31T10:37:12;101860.88;;;6.39;88.23
64095;BME280;50353;51.420;5.682;2023-01-31T10:42:13;101883.38;;;6.48;88.01
64095;BME280;50353;51.420;5.682;2023-01-31T10:47:30;101895.91;;;6.38;88.64
64095;BME280;50353;51.420;5.682;2023-01-31T10:49:55;101891.66;;;6.33;88.72
64095;BME280;50353;51.420;5.682;2023-01-31T10:57:51;101894.13;;;6.39;89.33
64095;BME280;50353;51.420;5.682;2023-01-31T11:00:22;101874.13;;;6.33;89.21
64095;BME280;50353;51.420;5.682;2023-01-31T11:02:50;101878.00;;;6.53;88.96
64095;BME280;50353;51.420;5.682;2023-01-31T11:05:18;101886.63;;;6.58;88.78
64095;BME280;50353;51.420;5.682;2023-01-31T11:07:45;101861.94;;;6.64;89.03
64095;BME280;50353;51.420;5.682;2023-01-31T11:10:31;101868.13;;;6.63;88.29
64095;BME280;50353;51.420;5.682;2023-01-31T11:13:01;101876.63;;;6.72;88.17
64095;BME280;50353;51.420;5.682;2023-01-31T11:15:34;101865.50;;;6.63;89.40
64095;BME280;50353;51.420;5.682;2023-01-31T11:18:00;101870.38;;;6.76;89.20
64095;BME280;50353;51.420;5.682;2023-01-31T11:20:31;101856.31;;;6.77;88.46
64095;BME280;50353;51.420;5.682;2023-01-31T11:22:59;101858.09;;;6.77;88.43
64095;BME280;50353;51.420;5.682;2023-01-31T11:25:30;101849.25;;;6.80;88.30
64095;BME280;50353;51.420;5.682;2023-01-31T11:27:58;101848.41;;;6.79;88.43
64095;BME280;50353;51.420;5.682;2023-01-31T11:30:28;101824.81;;;6.76;89.03
64095;BME280;50353;51.420;5.682;2023-01-31T11:32:54;101843.66;;;6.92;88.91
64095;BME280;50353;51.420;5.682;2023-01-31T11:35:32;101841.16;;;6.87;89.31
64095;BME280;50353;51.420;5.682;2023-01-31T11:38:08;101839.34;;;6.89;89.09
64095;BME280;50353;51.420;5.682;2023-01-31T11:40:47;101834.97;;;6.88;88.89
64095;BME280;50353;51.420;5.682;2023-01-31T11:45:45;101830.34;;;6.98;89.38
64095;BME280;50353;51.420;5.682;2023-01-31T11:50:39;101827.97;;;6.89;89.90
64095;BME280;50353;51.420;5.682;2023-01-31T11:53:25;101829.31;;;7.04;88.97
64095;BME280;50353;51.420;5.682;2023-01-31T11:55:54;101823.91;;;7.08;89.30
64095;BME280;50353;51.420;5.682;2023-01-31T11:58:35;101815.97;;;7.10;89.53
64095;BME280;50353;51.420;5.682;2023-01-31T12:01:23;101820.38;;;7.09;89.46
64095;BME280;50353;51.420;5.682;2023-01-31T12:04:02;101815.84;;;7.15;89.26
64095;BME280;50353;51.420;5.682;2023-01-31T12:06:32;101811.06;;;7.27;88.88
64095;BME280;50353;51.420;5.682;2023-01-31T12:09:00;101806.66;;;7.28;89.01
64095;BME280;50353;51.420;5.682;2023-01-31T12:11:30;101812.72;;;7.30;88.58
64095;BME280;50353;51.420;5.682;2023-01-31T12:14:12;101805.31;;;7.15;89.59
64095;BME280;50353;51.420;5.682;2023-01-31T12:16:39;101803.09;;;7.29;88.66
64095;BME280;50353;51.420;5.682;2023-01-31T12:27:41;101809.31;;;7.28;89.22
64095;BME280;50353;51.420;5.682;2023-01-31T12:30:26;101800.06;;;7.15;89.84
64095;BME280;50353;51.420;5.682;2023-01-31T12:36:08;101801.75;;;7.16;92.10
64095;BME280;50353;51.420;5.682;2023-01-31T12:41:30;101785.34;;;7.09;92.75
64095;BME280;50353;51.420;5.682;2023-01-31T12:49:50;101785.41;;;7.06;94.39
64095;BME280;50353;51.420;5.682;2023-01-31T12:57:55;101804.69;;;7.06;96.35
64095;BME280;50353;51.420;5.682;2023-01-31T13:05:54;101809.16;;;7.33;96.42
64095;BME280;50353;51.420;5.682;2023-01-31T13:08:24;101801.00;;;7.12;97.69
64095;BME280;50353;51.420;5.682;2023-01-31T13:13:25;101805.22;;;7.18;97.75
64095;BME280;50353;51.420;5.682;2023-01-31T13:16:00;101795.16;;;7.02;98.98
64095;BME280;50353;51.420;5.682;2023-01-31T13:18:31;101795.81;;;7.10;98.46
64095;BME280;50353;51.420;5.682;2023-01-31T13:21:01;101786.19;;;7.09;98.08
64095;BME280;50353;51.420;5.682;2023-01-31T13:23:32;101791.88;;;7.24;98.06
64095;BME280;50353;51.420;5.682;2023-01-31T13:26:15;101790.34;;;7.17;98.61
64095;BME280;50353;51.420;5.682;2023-01-31T13:28:50;101798.81;;;7.26;98.08
64095;BME280;50353;51.420;5.682;2023-01-31T13:31:23;101792.69;;;7.26;98.46
64095;BME280;50353;51.420;5.682;2023-01-31T13:34:18;101796.84;;;7.05;99.58
64095;BME280;50353;51.420;5.682;2023-01-31T13:36:50;101783.59;;;7.08;99.18
64095;BME280;50353;51.420;5.682;2023-01-31T13:39:20;101798.19;;;7.18;99.94
64095;BME280;50353;51.420;5.682;2023-01-31T13:41:48;101790.75;;;7.03;100.00
64095;BME280;50353;51.420;5.682;2023-01-31T13:44:13;101793.25;;;7.07;100.00
64095;BME280;50353;51.420;5.682;2023-01-31T13:46:54;101777.19;;;7.17;100.00
64095;BME280;50353;51.420;5.682;2023-01-31T13:49:32;101786.34;;;7.03;100.00
64095;BME280;50353;51.420;5.682;2023-01-31T13:52:02;101792.50;;;7.04;100.00
64095;BME280;50353;51.420;5.682;2023-01-31T13:54:39;101773.31;;;7.00;100.00
64095;BME280;50353;51.420;5.682;2023-01-31T13:57:05;101785.47;;;7.04;100.00
64095;BME280;50353;51.420;5.682;2023-01-31T13:59:33;101768.78;;;7.05;100.00
64095;BME280;50353;51.420;5.682;2023-01-31T14:02:01;101769.25;;;6.90;100.00
64095;BME280;50353;51.420;5.682;2023-01-31T14:04:35;101779.31;;;6.75;100.00
64095;BME280;50353;51.420;5.682;2023-01-31T14:09:31;101782.03;;;7.01;100.00
64095;BME280;50353;51.420;5.682;2023-01-31T14:11:58;101773.03;;;7.09;100.00
64095;BME280;50353;51.420;5.682;2023-01-31T14:14:31;101773.56;;;7.21;100.00
64095;BME280;50353;51.420;5.682;2023-01-31T14:20:04;101754.59;;;7.11;100.00
64095;BME280;50353;51.420;5.682;2023-01-31T14:22:33;101755.31;;;7.16;100.00
64095;BME280;50353;51.420;5.682;2023-01-31T14:30:22;101776.19;;;7.21;100.00
64095;BME280;50353;51.420;5.682;2023-01-31T14:33:03;101784.06;;;7.21;100.00
64095;BME280;50353;51.420;5.682;2023-01-31T14:35:56;101784.06;;;7.21;100.00
64095;BME280;50353;51.420;5.682;2023-01-31T14:41:23;101799.34;;;7.38;100.00
64095;BME280;50353;51.420;5.682;2023-01-31T14:47:04;101812.56;;;7.36;100.00
64095;BME280;50353;51.420;5.682;2023-01-31T14:58:17;101831.88;;;7.05;100.00
64095;BME280;50353;51.420;5.682;2023-01-31T15:00:54;101830.56;;;7.20;100.00
64095;BME280;50353;51.420;5.682;2023-01-31T15:03:25;101837.44;;;6.94;100.00
64095;BME280;50353;51.420;5.682;2023-01-31T15:05:55;101833.34;;;7.14;100.00
64095;BME280;50353;51.420;5.682;2023-01-31T15:08:34;101838.66;;;7.13;100.00